Frederike Selmer — V7QY8 — position and weather

sailwx.info

Track history (hours):
 
Tides and Currents Weather Stations Pressure Air Temp Water Temp Dewpoint Dewpoint Depression Visibility Wind Speed Wind Dir Waves Ship Positions

Frederike Selmer

Last reported at 2016-Apr-19 18:33 UTC. Time now 2016-Apr-30 09:06 UTC.
Position N 32°02' E 033°28'.
Warning: this ship's position is 10 days out of date.

Length 188 m; draft 12.8 m.

Type: Cargo ship. MMSI: 538090377.

Date/timePositionNaut miles runAvg speedWind from/ knotsBaromVisibWave heightAir tempDewpointWater temp
2016-Apr-19 18:33N 32°02' E 033°28'1414.3
2016-Apr-19 17:33N 32°06' E 033°45'1313.4
2016-Apr-19 16:33N 32°03' E 034°00'1413.5
2016-Apr-19 15:33N 31°58' E 034°15'1212.2
2016-Apr-19 14:33N 31°52' E 034°27'  
2016-Apr-17 09:07N 31°40' E 034°31'0 0.5
2016-Apr-17 08:33N 31°40' E 034°31'0 0.5
2016-Apr-17 07:33N 31°41' E 034°31'2 1.6
2016-Apr-17 06:33N 31°40' E 034°29'9 9.3
2016-Apr-17 05:33N 31°50' E 034°27'1211.7
2016-Apr-17 04:33N 31°56' E 034°16'1312.8
2016-Apr-17 03:33N 32°02' E 034°02'1312.6
2016-Apr-17 02:33N 32°06' E 033°48'1312.5
2016-Apr-17 01:33N 32°05' E 033°34'1312.7
2016-Apr-17 00:33N 32°00' E 033°20'1312.7
2016-Apr-16 23:33N 31°56' E 033°06'1412.7
2016-Apr-16 22:26N 31°49' E 032°51'1112.8
2016-Apr-16 21:33N 31°43' E 032°39'  
Track history (hours):
 
Tides and Currents Weather Stations Pressure Air Temp Water Temp Dewpoint Dewpoint Depression Visibility Wind Speed Wind Dir Waves Ship Positions

Frederike Selmer

Last reported at 2016-Apr-19 18:33 UTC. Time now 2016-Apr-30 09:06 UTC.
Position N 32°02' E 033°28'.
Warning: this ship's position is 10 days out of date.

Length 188 m; draft 12.8 m.

Type: Cargo ship. MMSI: 538090377.

Date/timePositionNaut miles runAvg speedWind from/ knotsBaromVisibWave heightAir tempDewpointWater temp
2016-Apr-19 18:33N 32°02' E 033°28'1414.3
2016-Apr-19 17:33N 32°06' E 033°45'1313.4
2016-Apr-19 16:33N 32°03' E 034°00'1413.5
2016-Apr-19 15:33N 31°58' E 034°15'1212.2
2016-Apr-19 14:33N 31°52' E 034°27'  
2016-Apr-17 09:07N 31°40' E 034°31'0 0.5
2016-Apr-17 08:33N 31°40' E 034°31'0 0.5
2016-Apr-17 07:33N 31°41' E 034°31'2 1.6
2016-Apr-17 06:33N 31°40' E 034°29'9 9.3
2016-Apr-17 05:33N 31°50' E 034°27'1211.7
2016-Apr-17 04:33N 31°56' E 034°16'1312.8
2016-Apr-17 03:33N 32°02' E 034°02'1312.6
2016-Apr-17 02:33N 32°06' E 033°48'1312.5
2016-Apr-17 01:33N 32°05' E 033°34'1312.7
2016-Apr-17 00:33N 32°00' E 033°20'1312.7
2016-Apr-16 23:33N 31°56' E 033°06'1412.7
2016-Apr-16 22:26N 31°49' E 032°51'1112.8
2016-Apr-16 21:33N 31°43' E 032°39'  

Dump ship's entire track history